sensor_id;sensor_type;location;lat;lon;timestamp;pressure;altitude;pressure_sealevel;temperature
11926;BMP180;6022;48.768;18.608;2023-02-18T00:01:17;98519.28;;;6.19
11926;BMP180;6022;48.768;18.608;2023-02-18T00:03:45;98515.50;;;6.29
11926;BMP180;6022;48.768;18.608;2023-02-18T00:08:50;98514.81;;;6.44
11926;BMP180;6022;48.768;18.608;2023-02-18T00:11:20;98501.97;;;6.48
11926;BMP180;6022;48.768;18.608;2023-02-18T00:13:57;98515.41;;;6.49
11926;BMP180;6022;48.768;18.608;2023-02-18T00:16:27;98507.53;;;6.55
11926;BMP180;6022;48.768;18.608;2023-02-18T00:18:57;98505.63;;;6.60
11926;BMP180;6022;48.768;18.608;2023-02-18T00:21:25;98494.69;;;6.61
11926;BMP180;6022;48.768;18.608;2023-02-18T00:23:53;98503.75;;;6.65
11926;BMP180;6022;48.768;18.608;2023-02-18T00:26:21;98499.38;;;6.68
11926;BMP180;6022;48.768;18.608;2023-02-18T00:28:49;98497.50;;;6.72
11926;BMP180;6022;48.768;18.608;2023-02-18T00:31:24;98495.94;;;6.69
11926;BMP180;6022;48.768;18.608;2023-02-18T00:33:52;98485.06;;;6.69
11926;BMP180;6022;48.768;18.608;2023-02-18T00:36:21;98492.56;;;6.70
11926;BMP180;6022;48.768;18.608;2023-02-18T00:38:53;98499.38;;;6.68
11926;BMP180;6022;48.768;18.608;2023-02-18T00:41:25;98497.78;;;6.66
11926;BMP180;6022;48.768;18.608;2023-02-18T00:43:53;98495.28;;;6.66
11926;BMP180;6022;48.768;18.608;2023-02-18T00:46:22;98491.13;;;6.65
11926;BMP180;6022;48.768;18.608;2023-02-18T00:48:58;98487.88;;;6.63
11926;BMP180;6022;48.768;18.608;2023-02-18T00:52:25;98482.84;;;6.63
11926;BMP180;6022;48.768;18.608;2023-02-18T00:55:58;98481.63;;;6.70
11926;BMP180;6022;48.768;18.608;2023-02-18T00:58:26;98475.03;;;6.67
11926;BMP180;6022;48.768;18.608;2023-02-18T01:01:07;98480.22;;;6.64
11926;BMP180;6022;48.768;18.608;2023-02-18T01:03:40;98476.88;;;6.64
11926;BMP180;6022;48.768;18.608;2023-02-18T01:06:11;98466.81;;;6.64
11926;BMP180;6022;48.768;18.608;2023-02-18T01:08:40;98463.47;;;6.63
11926;BMP180;6022;48.768;18.608;2023-02-18T01:11:10;98459.19;;;6.65
11926;BMP180;6022;48.768;18.608;2023-02-18T01:13:43;98470.22;;;6.63
11926;BMP180;6022;48.768;18.608;2023-02-18T01:16:11;98456.72;;;6.64
11926;BMP180;6022;48.768;18.608;2023-02-18T01:18:45;98462.50;;;6.66
11926;BMP180;6022;48.768;18.608;2023-02-18T01:21:18;98452.34;;;6.67
11926;BMP180;6022;48.768;18.608;2023-02-18T01:23:45;98459.97;;;6.66
11926;BMP180;6022;48.768;18.608;2023-02-18T01:26:13;98454.66;;;6.72
11926;BMP180;6022;48.768;18.608;2023-02-18T01:28:40;98453.78;;;6.73
11926;BMP180;6022;48.768;18.608;2023-02-18T01:31:11;98459.25;;;6.80
11926;BMP180;6022;48.768;18.608;2023-02-18T01:33:39;98442.59;;;6.78
11926;BMP180;6022;48.768;18.608;2023-02-18T01:36:08;98451.69;;;6.80
11926;BMP180;6022;48.768;18.608;2023-02-18T01:38:36;98456.59;;;6.83
11926;BMP180;6022;48.768;18.608;2023-02-18T01:41:05;98454.53;;;6.91
11926;BMP180;6022;48.768;18.608;2023-02-18T01:43:37;98455.94;;;6.97
11926;BMP180;6022;48.768;18.608;2023-02-18T01:46:20;98450.09;;;6.96
11926;BMP180;6022;48.768;18.608;2023-02-18T01:48:57;98455.63;;;7.03
11926;BMP180;6022;48.768;18.608;2023-02-18T01:51:40;98448.00;;;7.04
11926;BMP180;6022;48.768;18.608;2023-02-18T01:54:18;98446.22;;;7.06
11926;BMP180;6022;48.768;18.608;2023-02-18T01:57:03;98443.69;;;7.06
11926;BMP180;6022;48.768;18.608;2023-02-18T01:59:51;98451.19;;;7.08
11926;BMP180;6022;48.768;18.608;2023-02-18T02:02:25;98464.38;;;7.13
11926;BMP180;6022;48.768;18.608;2023-02-18T02:04:53;98450.97;;;7.12
11926;BMP180;6022;48.768;18.608;2023-02-18T02:07:25;98464.44;;;7.11
11926;BMP180;6022;48.768;18.608;2023-02-18T02:09:56;98461.84;;;7.13
11926;BMP180;6022;48.768;18.608;2023-02-18T02:15:33;98480.13;;;7.17
11926;BMP180;6022;48.768;18.608;2023-02-18T02:21:47;98502.81;;;7.17
11926;BMP180;6022;48.768;18.608;2023-02-18T02:45:15;98488.19;;;7.07
11926;BMP180;6022;48.768;18.608;2023-02-18T02:48:36;98489.09;;;7.06
11926;BMP180;6022;48.768;18.608;2023-02-18T02:51:31;98499.38;;;7.02
11926;BMP180;6022;48.768;18.608;2023-02-18T02:54:21;98521.28;;;7.01
11926;BMP180;6022;48.768;18.608;2023-02-18T02:56:49;98521.34;;;7.00
11926;BMP180;6022;48.768;18.608;2023-02-18T02:59:22;98510.31;;;7.02
11926;BMP180;6022;48.768;18.608;2023-02-18T03:02:24;98507.69;;;7.04
11926;BMP180;6022;48.768;18.608;2023-02-18T03:08:08;98511.50;;;7.12
11926;BMP180;6022;48.768;18.608;2023-02-18T03:11:16;98516.31;;;7.16
11926;BMP180;6022;48.768;18.608;2023-02-18T03:13:56;98519.66;;;7.17
11926;BMP180;6022;48.768;18.608;2023-02-18T03:16:42;98519.66;;;7.17
11926;BMP180;6022;48.768;18.608;2023-02-18T03:22:10;98516.53;;;7.12
11926;BMP180;6022;48.768;18.608;2023-02-18T03:24:48;98521.50;;;7.14
11926;BMP180;6022;48.768;18.608;2023-02-18T03:27:26;98524.78;;;7.15
11926;BMP180;6022;48.768;18.608;2023-02-18T03:30:09;98521.28;;;7.18
11926;BMP180;6022;48.768;18.608;2023-02-18T03:32:39;98519.31;;;7.24
11926;BMP180;6022;48.768;18.608;2023-02-18T03:35:16;98510.75;;;7.27
11926;BMP180;6022;48.768;18.608;2023-02-18T03:37:54;98519.72;;;7.32
11926;BMP180;6022;48.768;18.608;2023-02-18T03:40:29;98520.78;;;7.45
11926;BMP180;6022;48.768;18.608;2023-02-18T03:42:59;98524.84;;;7.48
11926;BMP180;6022;48.768;18.608;2023-02-18T03:45:27;98526.63;;;7.46
11926;BMP180;6022;48.768;18.608;2023-02-18T03:47:55;98531.38;;;7.52
11926;BMP180;6022;48.768;18.608;2023-02-18T03:50:23;98528.41;;;7.60
11926;BMP180;6022;48.768;18.608;2023-02-18T03:52:50;98530.16;;;7.75
11926;BMP180;6022;48.768;18.608;2023-02-18T03:55:17;98529.97;;;7.78
11926;BMP180;6022;48.768;18.608;2023-02-18T03:57:45;98543.06;;;7.86
11926;BMP180;6022;48.768;18.608;2023-02-18T04:00:13;98549.06;;;7.84
11926;BMP180;6022;48.768;18.608;2023-02-18T04:02:41;98546.84;;;7.78
11926;BMP180;6022;48.768;18.608;2023-02-18T04:05:08;98547.75;;;7.77
11926;BMP180;6022;48.768;18.608;2023-02-18T04:07:36;98555.47;;;7.74
11926;BMP180;6022;48.768;18.608;2023-02-18T04:10:05;98559.78;;;7.72
11926;BMP180;6022;48.768;18.608;2023-02-18T04:12:32;98558.44;;;7.65
11926;BMP180;6022;48.768;18.608;2023-02-18T04:15:00;98551.69;;;7.65
11926;BMP180;6022;48.768;18.608;2023-02-18T04:17:27;98560.91;;;7.66
11926;BMP180;6022;48.768;18.608;2023-02-18T04:19:55;98558.25;;;7.69
11926;BMP180;6022;48.768;18.608;2023-02-18T04:22:22;98549.00;;;7.68
11926;BMP180;6022;48.768;18.608;2023-02-18T04:24:50;98548.34;;;7.65
11926;BMP180;6022;48.768;18.608;2023-02-18T04:27:17;98545.75;;;7.66
11926;BMP180;6022;48.768;18.608;2023-02-18T04:29:45;98552.59;;;7.64
11926;BMP180;6022;48.768;18.608;2023-02-18T04:32:12;98545.75;;;7.66
11926;BMP180;6022;48.768;18.608;2023-02-18T04:34:39;98547.69;;;7.61
11926;BMP180;6022;48.768;18.608;2023-02-18T04:37:07;98547.84;;;7.58
11926;BMP180;6022;48.768;18.608;2023-02-18T04:39:34;98549.63;;;7.56
11926;BMP180;6022;48.768;18.608;2023-02-18T04:42:02;98556.59;;;7.52
11926;BMP180;6022;48.768;18.608;2023-02-18T04:44:36;98555.13;;;7.48
11926;BMP180;6022;48.768;18.608;2023-02-18T04:47:05;98546.94;;;7.43
11926;BMP180;6022;48.768;18.608;2023-02-18T04:49:33;98549.78;;;7.37
11926;BMP180;6022;48.768;18.608;2023-02-18T04:52:01;98545.91;;;7.30
11926;BMP180;6022;48.768;18.608;2023-02-18T04:54:28;98551.56;;;7.35
11926;BMP180;6022;48.768;18.608;2023-02-18T04:56:56;98543.19;;;7.34
11926;BMP180;6022;48.768;18.608;2023-02-18T04:59:24;98545.63;;;7.36
11926;BMP180;6022;48.768;18.608;2023-02-18T05:01:51;98536.34;;;7.36
11926;BMP180;6022;48.768;18.608;2023-02-18T05:04:19;98544.66;;;7.38
11926;BMP180;6022;48.768;18.608;2023-02-18T05:06:47;98544.06;;;7.50
11926;BMP180;6022;48.768;18.608;2023-02-18T05:09:15;98546.50;;;7.52
11926;BMP180;6022;48.768;18.608;2023-02-18T05:11:42;98561.50;;;7.54
11926;BMP180;6022;48.768;18.608;2023-02-18T05:14:10;98556.31;;;7.57
11926;BMP180;6022;48.768;18.608;2023-02-18T05:16:37;98554.69;;;7.56
11926;BMP180;6022;48.768;18.608;2023-02-18T05:19:05;98564.91;;;7.53
11926;BMP180;6022;48.768;18.608;2023-02-18T05:21:33;98560.84;;;7.51
11926;BMP180;6022;48.768;18.608;2023-02-18T05:24:00;98570.13;;;7.51
11926;BMP180;6022;48.768;18.608;2023-02-18T05:26:31;98571.97;;;7.47
11926;BMP180;6022;48.768;18.608;2023-02-18T05:28:58;98567.00;;;7.46
11926;BMP180;6022;48.768;18.608;2023-02-18T05:31:26;98563.88;;;7.41
11926;BMP180;6022;48.768;18.608;2023-02-18T05:33:53;98565.59;;;7.40
11926;BMP180;6022;48.768;18.608;2023-02-18T05:36:21;98550.69;;;7.36
11926;BMP180;6022;48.768;18.608;2023-02-18T05:38:48;98559.44;;;7.29
11926;BMP180;6022;48.768;18.608;2023-02-18T05:41:15;98566.19;;;7.28
11926;BMP180;6022;48.768;18.608;2023-02-18T05:43:42;98564.78;;;7.23
11926;BMP180;6022;48.768;18.608;2023-02-18T05:46:29;98575.16;;;7.17
11926;BMP180;6022;48.768;18.608;2023-02-18T05:48:56;98564.34;;;7.15
11926;BMP180;6022;48.768;18.608;2023-02-18T05:51:24;98572.72;;;7.15
11926;BMP180;6022;48.768;18.608;2023-02-18T05:53:51;98569.44;;;7.14
11926;BMP180;6022;48.768;18.608;2023-02-18T05:56:19;98568.69;;;7.12
11926;BMP180;6022;48.768;18.608;2023-02-18T05:58:47;98573.94;;;7.07
11926;BMP180;6022;48.768;18.608;2023-02-18T06:01:15;98576.41;;;7.09
11926;BMP180;6022;48.768;18.608;2023-02-18T06:03:42;98568.22;;;7.04
11926;BMP180;6022;48.768;18.608;2023-02-18T06:06:10;98574.09;;;7.04
11926;BMP180;6022;48.768;18.608;2023-02-18T06:08:38;98569.19;;;7.01
11926;BMP180;6022;48.768;18.608;2023-02-18T06:11:05;98575.72;;;7.05
11926;BMP180;6022;48.768;18.608;2023-02-18T06:13:33;98576.34;;;7.10
11926;BMP180;6022;48.768;18.608;2023-02-18T06:16:01;98583.59;;;7.16
11926;BMP180;6022;48.768;18.608;2023-02-18T06:18:29;98585.03;;;7.21
11926;BMP180;6022;48.768;18.608;2023-02-18T06:20:59;98587.47;;;7.23
11926;BMP180;6022;48.768;18.608;2023-02-18T06:23:28;98584.53;;;7.32
11926;BMP180;6022;48.768;18.608;2023-02-18T06:25:58;98577.53;;;7.37
11926;BMP180;6022;48.768;18.608;2023-02-18T06:28:25;98573.97;;;7.41
11926;BMP180;6022;48.768;18.608;2023-02-18T06:30:55;98590.31;;;7.51
11926;BMP180;6022;48.768;18.608;2023-02-18T06:33:23;98593.59;;;7.53
11926;BMP180;6022;48.768;18.608;2023-02-18T06:35:57;98589.41;;;7.52
11926;BMP180;6022;48.768;18.608;2023-02-18T06:38:28;98593.72;;;7.50
11926;BMP180;6022;48.768;18.608;2023-02-18T06:40:57;98591.13;;;7.51
11926;BMP180;6022;48.768;18.608;2023-02-18T06:43:25;98589.47;;;7.50
11926;BMP180;6022;48.768;18.608;2023-02-18T06:45:52;98588.53;;;7.53
11926;BMP180;6022;48.768;18.608;2023-02-18T06:48:20;98596.00;;;7.54
11926;BMP180;6022;48.768;18.608;2023-02-18T06:50:48;98602.56;;;7.58
11926;BMP180;6022;48.768;18.608;2023-02-18T06:53:29;98606.47;;;7.63
11926;BMP180;6022;48.768;18.608;2023-02-18T06:55:57;98598.91;;;7.63
11926;BMP180;6022;48.768;18.608;2023-02-18T06:58:32;98595.44;;;7.66
11926;BMP180;6022;48.768;18.608;2023-02-18T07:01:03;98595.13;;;7.72
11926;BMP180;6022;48.768;18.608;2023-02-18T07:03:31;98596.75;;;7.73
11926;BMP180;6022;48.768;18.608;2023-02-18T07:05:59;98589.09;;;7.74
11926;BMP180;6022;48.768;18.608;2023-02-18T07:08:27;98599.63;;;7.82
11926;BMP180;6022;48.768;18.608;2023-02-18T07:10:57;98593.78;;;7.82
11926;BMP180;6022;48.768;18.608;2023-02-18T07:13:24;98602.16;;;7.82
11926;BMP180;6022;48.768;18.608;2023-02-18T07:15:52;98612.25;;;7.82
11926;BMP180;6022;48.768;18.608;2023-02-18T07:18:19;98622.09;;;7.88
11926;BMP180;6022;48.768;18.608;2023-02-18T07:20:47;98610.94;;;7.92
11926;BMP180;6022;48.768;18.608;2023-02-18T07:23:14;98615.25;;;7.90
11926;BMP180;6022;48.768;18.608;2023-02-18T07:25:42;98617.03;;;7.88
11926;BMP180;6022;48.768;18.608;2023-02-18T07:28:10;98630.53;;;7.87
11926;BMP180;6022;48.768;18.608;2023-02-18T07:30:37;98627.28;;;7.85
11926;BMP180;6022;48.768;18.608;2023-02-18T07:33:05;98638.25;;;7.84
11926;BMP180;6022;48.768;18.608;2023-02-18T07:35:33;98627.34;;;7.84
11926;BMP180;6022;48.768;18.608;2023-02-18T07:38:01;98628.00;;;7.87
11926;BMP180;6022;48.768;18.608;2023-02-18T07:40:29;98629.06;;;7.83
11926;BMP180;6022;48.768;18.608;2023-02-18T07:42:56;98624.88;;;7.82
11926;BMP180;6022;48.768;18.608;2023-02-18T07:45:23;98628.31;;;7.81
11926;BMP180;6022;48.768;18.608;2023-02-18T07:47:51;98635.91;;;7.81
11926;BMP180;6022;48.768;18.608;2023-02-18T07:50:18;98644.72;;;7.89
11926;BMP180;6022;48.768;18.608;2023-02-18T07:52:45;98642.94;;;7.91
11926;BMP180;6022;48.768;18.608;2023-02-18T07:55:12;98642.88;;;7.93
11926;BMP180;6022;48.768;18.608;2023-02-18T07:57:40;98645.19;;;7.97
11926;BMP180;6022;48.768;18.608;2023-02-18T08:00:23;98645.69;;;8.04
11926;BMP180;6022;48.768;18.608;2023-02-18T08:02:51;98634.69;;;8.05
11926;BMP180;6022;48.768;18.608;2023-02-18T08:05:20;98634.19;;;8.15
11926;BMP180;6022;48.768;18.608;2023-02-18T08:07:48;98629.78;;;8.19
11926;BMP180;6022;48.768;18.608;2023-02-18T08:10:15;98629.66;;;8.22
11926;BMP180;6022;48.768;18.608;2023-02-18T08:12:43;98622.06;;;8.22
11926;BMP180;6022;48.768;18.608;2023-02-18T08:15:10;98617.00;;;8.22
11926;BMP180;6022;48.768;18.608;2023-02-18T08:17:37;98613.50;;;8.24
11926;BMP180;6022;48.768;18.608;2023-02-18T08:20:06;98617.75;;;8.24
11926;BMP180;6022;48.768;18.608;2023-02-18T08:22:34;98613.56;;;8.23
11926;BMP180;6022;48.768;18.608;2023-02-18T08:25:02;98621.09;;;8.24
11926;BMP180;6022;48.768;18.608;2023-02-18T08:27:31;98618.56;;;8.24
11926;BMP180;6022;48.768;18.608;2023-02-18T08:29:58;98619.22;;;8.28
11926;BMP180;6022;48.768;18.608;2023-02-18T08:32:29;98627.38;;;8.32
11926;BMP180;6022;48.768;18.608;2023-02-18T08:34:56;98624.84;;;8.32
11926;BMP180;6022;48.768;18.608;2023-02-18T08:37:24;98625.00;;;8.29
11926;BMP180;6022;48.768;18.608;2023-02-18T08:39:52;98620.84;;;8.28
11926;BMP180;6022;48.768;18.608;2023-02-18T08:42:20;98633.53;;;8.27
11926;BMP180;6022;48.768;18.608;2023-02-18T08:44:47;98636.25;;;8.24
11926;BMP180;6022;48.768;18.608;2023-02-18T08:47:15;98634.09;;;8.17
11926;BMP180;6022;48.768;18.608;2023-02-18T08:50:04;98627.72;;;8.10
11926;BMP180;6022;48.768;18.608;2023-02-18T08:52:32;98632.81;;;8.08
11926;BMP180;6022;48.768;18.608;2023-02-18T08:55:00;98618.56;;;8.07
11926;BMP180;6022;48.768;18.608;2023-02-18T08:57:27;98630.53;;;8.04
11926;BMP180;6022;48.768;18.608;2023-02-18T08:59:57;98627.13;;;8.05
11926;BMP180;6022;48.768;18.608;2023-02-18T09:02:25;98618.03;;;8.01
11926;BMP180;6022;48.768;18.608;2023-02-18T09:04:54;98616.19;;;8.04
11926;BMP180;6022;48.768;18.608;2023-02-18T09:07:21;98606.00;;;8.06
11926;BMP180;6022;48.768;18.608;2023-02-18T09:09:49;98609.44;;;8.05
11926;BMP180;6022;48.768;18.608;2023-02-18T09:12:24;98613.88;;;8.17
11926;BMP180;6022;48.768;18.608;2023-02-18T09:14:52;98628.06;;;8.19
11926;BMP180;6022;48.768;18.608;2023-02-18T09:17:30;98627.03;;;8.23
11926;BMP180;6022;48.768;18.608;2023-02-18T09:19:57;98632.00;;;8.25
11926;BMP180;6022;48.768;18.608;2023-02-18T09:22:25;98631.03;;;8.27
11926;BMP180;6022;48.768;18.608;2023-02-18T09:24:54;98641.00;;;8.30
11926;BMP180;6022;48.768;18.608;2023-02-18T09:27:23;98640.91;;;8.31
11926;BMP180;6022;48.768;18.608;2023-02-18T09:29:51;98636.91;;;8.28
11926;BMP180;6022;48.768;18.608;2023-02-18T09:32:18;98629.47;;;8.25
11926;BMP180;6022;48.768;18.608;2023-02-18T09:35:04;98626.81;;;8.28
11926;BMP180;6022;48.768;18.608;2023-02-18T09:37:31;98612.94;;;8.34
11926;BMP180;6022;48.768;18.608;2023-02-18T09:40:01;98612.78;;;8.37
11926;BMP180;6022;48.768;18.608;2023-02-18T09:42:33;98608.53;;;8.38
11926;BMP180;6022;48.768;18.608;2023-02-18T09:45:06;98598.03;;;8.45
11926;BMP180;6022;48.768;18.608;2023-02-18T09:47:41;98599.91;;;8.57
11926;BMP180;6022;48.768;18.608;2023-02-18T09:52:46;98586.78;;;8.81
11926;BMP180;6022;48.768;18.608;2023-02-18T09:55:23;98581.50;;;8.86
11926;BMP180;6022;48.768;18.608;2023-02-18T09:57:54;98581.00;;;8.95
11926;BMP180;6022;48.768;18.608;2023-02-18T10:00:34;98582.13;;;9.04
11926;BMP180;6022;48.768;18.608;2023-02-18T10:03:17;98587.19;;;9.04
11926;BMP180;6022;48.768;18.608;2023-02-18T10:06:04;98586.06;;;9.10
11926;BMP180;6022;48.768;18.608;2023-02-18T10:08:42;98585.22;;;9.25
11926;BMP180;6022;48.768;18.608;2023-02-18T10:13:48;98577.34;;;9.29
11926;BMP180;6022;48.768;18.608;2023-02-18T10:16:21;98572.66;;;9.37
11926;BMP180;6022;48.768;18.608;2023-02-18T10:18:56;98579.81;;;9.31
11926;BMP180;6022;48.768;18.608;2023-02-18T10:21:28;98579.88;;;9.29
11926;BMP180;6022;48.768;18.608;2023-02-18T10:26:51;98557.25;;;9.26
11926;BMP180;6022;48.768;18.608;2023-02-18T10:29:23;98550.59;;;9.25
11926;BMP180;6022;48.768;18.608;2023-02-18T10:32:15;98543.72;;;9.27
11926;BMP180;6022;48.768;18.608;2023-02-18T10:34:52;98554.00;;;9.24
11926;BMP180;6022;48.768;18.608;2023-02-18T10:40:47;98534.69;;;9.37
11926;BMP180;6022;48.768;18.608;2023-02-18T10:43:37;98524.75;;;9.34
11926;BMP180;6022;48.768;18.608;2023-02-18T10:46:43;98519.34;;;9.40
11926;BMP180;6022;48.768;18.608;2023-02-18T10:52:19;98524.03;;;9.46
11926;BMP180;6022;48.768;18.608;2023-02-18T10:55:00;98515.72;;;9.44
11926;BMP180;6022;48.768;18.608;2023-02-18T10:57:31;98509.22;;;9.40
11926;BMP180;6022;48.768;18.608;2023-02-18T11:00:20;98506.56;;;9.28
11926;BMP180;6022;48.768;18.608;2023-02-18T11:05:47;98505.28;;;9.21
11926;BMP180;6022;48.768;18.608;2023-02-18T11:08:21;98500.03;;;9.24
11926;BMP180;6022;48.768;18.608;2023-02-18T11:10:50;98498.66;;;9.18
11926;BMP180;6022;48.768;18.608;2023-02-18T11:13:26;98495.41;;;9.16
11926;BMP180;6022;48.768;18.608;2023-02-18T11:16:04;98489.97;;;9.08
11926;BMP180;6022;48.768;18.608;2023-02-18T11:18:40;98490.13;;;9.05
11926;BMP180;6022;48.768;18.608;2023-02-18T11:21:33;98483.84;;;9.12
11926;BMP180;6022;48.768;18.608;2023-02-18T11:24:15;98485.78;;;9.23
11926;BMP180;6022;48.768;18.608;2023-02-18T11:26:44;98486.13;;;9.31
11926;BMP180;6022;48.768;18.608;2023-02-18T11:29:20;98471.59;;;9.48
11926;BMP180;6022;48.768;18.608;2023-02-18T11:31:52;98472.53;;;9.61
11926;BMP180;6022;48.768;18.608;2023-02-18T11:34:30;98463.28;;;9.60
11926;BMP180;6022;48.768;18.608;2023-02-18T11:37:19;98463.47;;;9.71
11926;BMP180;6022;48.768;18.608;2023-02-18T11:39:54;98457.22;;;9.76
11926;BMP180;6022;48.768;18.608;2023-02-18T11:42:25;98459.84;;;9.75
11926;BMP180;6022;48.768;18.608;2023-02-18T11:44:56;98453.16;;;9.74
11926;BMP180;6022;48.768;18.608;2023-02-18T11:47:34;98449.34;;;9.80
11926;BMP180;6022;48.768;18.608;2023-02-18T11:52:41;98440.69;;;9.84
11926;BMP180;6022;48.768;18.608;2023-02-18T11:55:20;98422.09;;;9.84
11926;BMP180;6022;48.768;18.608;2023-02-18T11:57:54;98417.13;;;9.82
11926;BMP180;6022;48.768;18.608;2023-02-18T12:00:43;98422.84;;;9.86
11926;BMP180;6022;48.768;18.608;2023-02-18T12:06:04;98412.00;;;9.98
11926;BMP180;6022;48.768;18.608;2023-02-18T12:08:52;98411.72;;;10.02
11926;BMP180;6022;48.768;18.608;2023-02-18T12:11:30;98406.09;;;9.97
11926;BMP180;6022;48.768;18.608;2023-02-18T12:14:00;98402.47;;;9.87
11926;BMP180;6022;48.768;18.608;2023-02-18T12:22:18;98391.78;;;9.82
11926;BMP180;6022;48.768;18.608;2023-02-18T12:40:35;98388.94;;;9.47
11926;BMP180;6022;48.768;18.608;2023-02-18T12:47:24;98381.47;;;9.45
11926;BMP180;6022;48.768;18.608;2023-02-18T12:50:09;98367.06;;;9.46
11926;BMP180;6022;48.768;18.608;2023-02-18T12:53:19;98356.22;;;9.44
11926;BMP180;6022;48.768;18.608;2023-02-18T12:59:05;98355.22;;;9.46
11926;BMP180;6022;48.768;18.608;2023-02-18T13:14:19;98335.00;;;9.33
11926;BMP180;6022;48.768;18.608;2023-02-18T13:16:52;98326.31;;;9.37
11926;BMP180;6022;48.768;18.608;2023-02-18T13:19:30;98319.50;;;9.37
11926;BMP180;6022;48.768;18.608;2023-02-18T13:22:04;98309.47;;;9.36
11926;BMP180;6022;48.768;18.608;2023-02-18T13:24:40;98305.34;;;9.35
11926;BMP180;6022;48.768;18.608;2023-02-18T13:30:34;98283.34;;;9.35
11926;BMP180;6022;48.768;18.608;2023-02-18T13:33:36;98295.56;;;9.42
11926;BMP180;6022;48.768;18.608;2023-02-18T13:39:08;98290.50;;;9.42
11926;BMP180;6022;48.768;18.608;2023-02-18T13:41:41;98281.16;;;9.43
11926;BMP180;6022;48.768;18.608;2023-02-18T13:46:58;98273.47;;;9.44
11926;BMP180;6022;48.768;18.608;2023-02-18T13:49:38;98278.38;;;9.47
11926;BMP180;6022;48.768;18.608;2023-02-18T13:52:19;98269.13;;;9.46
11926;BMP180;6022;48.768;18.608;2023-02-18T13:54:47;98269.84;;;9.48
11926;BMP180;6022;48.768;18.608;2023-02-18T13:57:25;98266.69;;;9.45
11926;BMP180;6022;48.768;18.608;2023-02-18T14:00:05;98264.16;;;9.45
11926;BMP180;6022;48.768;18.608;2023-02-18T14:02:58;98265.63;;;9.49
11926;BMP180;6022;48.768;18.608;2023-02-18T14:05:39;98258.19;;;9.46
11926;BMP180;6022;48.768;18.608;2023-02-18T14:14:13;98235.13;;;9.50
11926;BMP180;6022;48.768;18.608;2023-02-18T14:17:26;98229.25;;;9.50
11926;BMP180;6022;48.768;18.608;2023-02-18T14:22:49;98217.41;;;9.50
11926;BMP180;6022;48.768;18.608;2023-02-18T14:25:53;98221.03;;;9.46
11926;BMP180;6022;48.768;18.608;2023-02-18T14:33:34;98213.75;;;9.42
11926;BMP180;6022;48.768;18.608;2023-02-18T14:36:27;98209.56;;;9.41
11926;BMP180;6022;48.768;18.608;2023-02-18T14:39:11;98202.91;;;9.40
11926;BMP180;6022;48.768;18.608;2023-02-18T14:48:36;98181.94;;;9.38
11926;BMP180;6022;48.768;18.608;2023-02-18T14:51:07;98168.56;;;9.36
11926;BMP180;6022;48.768;18.608;2023-02-18T14:53:53;98170.88;;;9.39
11926;BMP180;6022;48.768;18.608;2023-02-18T14:56:27;98160.44;;;9.31
11926;BMP180;6022;48.768;18.608;2023-02-18T14:59:02;98161.22;;;9.32
11926;BMP180;6022;48.768;18.608;2023-02-18T15:01:34;98168.94;;;9.30
11926;BMP180;6022;48.768;18.608;2023-02-18T15:04:03;98163.66;;;9.33
11926;BMP180;6022;48.768;18.608;2023-02-18T15:06:37;98163.66;;;9.33
11926;BMP180;6022;48.768;18.608;2023-02-18T15:09:20;98161.44;;;9.29
11926;BMP180;6022;48.768;18.608;2023-02-18T15:21:35;98152.41;;;9.25
11926;BMP180;6022;48.768;18.608;2023-02-18T15:29:00;98140.03;;;9.20
11926;BMP180;6022;48.768;18.608;2023-02-18T15:31:38;98126.88;;;9.15
11926;BMP180;6022;48.768;18.608;2023-02-18T15:36:58;98130.28;;;9.14
11926;BMP180;6022;48.768;18.608;2023-02-18T15:40:02;98144.38;;;9.18
11926;BMP180;6022;48.768;18.608;2023-02-18T15:42:36;98132.53;;;9.19
11926;BMP180;6022;48.768;18.608;2023-02-18T15:45:23;98120.50;;;9.22
11926;BMP180;6022;48.768;18.608;2023-02-18T15:47:55;98114.34;;;9.26
11926;BMP180;6022;48.768;18.608;2023-02-18T15:50:32;98121.44;;;9.34
11926;BMP180;6022;48.768;18.608;2023-02-18T15:53:14;98116.03;;;9.40
11926;BMP180;6022;48.768;18.608;2023-02-18T15:55:48;98120.78;;;9.44
11926;BMP180;6022;48.768;18.608;2023-02-18T15:58:33;98127.09;;;9.51
11926;BMP180;6022;48.768;18.608;2023-02-18T16:01:06;98118.16;;;9.58
11926;BMP180;6022;48.768;18.608;2023-02-18T16:03:45;98121.41;;;9.60
11926;BMP180;6022;48.768;18.608;2023-02-18T16:06:28;98119.41;;;9.65
11926;BMP180;6022;48.768;18.608;2023-02-18T16:12:31;98105.84;;;9.66
11926;BMP180;6022;48.768;18.608;2023-02-18T16:15:03;98107.66;;;9.64
11926;BMP180;6022;48.768;18.608;2023-02-18T16:17:31;98111.00;;;9.64
11926;BMP180;6022;48.768;18.608;2023-02-18T16:20:30;98116.78;;;9.66
11926;BMP180;6022;48.768;18.608;2023-02-18T16:25:50;98106.03;;;9.63
11926;BMP180;6022;48.768;18.608;2023-02-18T16:28:31;98101.16;;;9.60
11926;BMP180;6022;48.768;18.608;2023-02-18T16:31:01;98097.91;;;9.58
11926;BMP180;6022;48.768;18.608;2023-02-18T16:33:49;98103.50;;;9.63
11926;BMP180;6022;48.768;18.608;2023-02-18T16:37:19;98111.09;;;9.63
11926;BMP180;6022;48.768;18.608;2023-02-18T16:40:26;98096.63;;;9.65
11926;BMP180;6022;48.768;18.608;2023-02-18T16:42:57;98109.28;;;9.65
11926;BMP180;6022;48.768;18.608;2023-02-18T16:46:18;98097.50;;;9.64
11926;BMP180;6022;48.768;18.608;2023-02-18T16:49:07;98104.22;;;9.65
11926;BMP180;6022;48.768;18.608;2023-02-18T16:51:46;98102.50;;;9.65
11926;BMP180;6022;48.768;18.608;2023-02-18T16:54:18;98092.09;;;9.70
11926;BMP180;6022;48.768;18.608;2023-02-18T16:57:24;98094.41;;;9.73
11926;BMP180;6022;48.768;18.608;2023-02-18T17:00:17;98078.72;;;9.68
11926;BMP180;6022;48.768;18.608;2023-02-18T17:02:59;98087.00;;;9.70
11926;BMP180;6022;48.768;18.608;2023-02-18T17:05:34;98097.16;;;9.70
11926;BMP180;6022;48.768;18.608;2023-02-18T17:08:31;98092.09;;;9.70
11926;BMP180;6022;48.768;18.608;2023-02-18T17:11:28;98087.00;;;9.70
11926;BMP180;6022;48.768;18.608;2023-02-18T17:14:17;98084.56;;;9.68
11926;BMP180;6022;48.768;18.608;2023-02-18T17:20:16;98089.84;;;9.78
11926;BMP180;6022;48.768;18.608;2023-02-18T17:22:47;98090.88;;;9.75
11926;BMP180;6022;48.768;18.608;2023-02-18T17:25:45;98098.34;;;9.77
11926;BMP180;6022;48.768;18.608;2023-02-18T17:28:18;98104.44;;;9.74
11926;BMP180;6022;48.768;18.608;2023-02-18T17:30:54;98099.06;;;9.78
11926;BMP180;6022;48.768;18.608;2023-02-18T17:33:27;98097.34;;;9.79
11926;BMP180;6022;48.768;18.608;2023-02-18T17:36:05;98088.06;;;9.92
11926;BMP180;6022;48.768;18.608;2023-02-18T17:38:50;98094.66;;;9.94
11926;BMP180;6022;48.768;18.608;2023-02-18T17:41:20;98077.31;;;9.88